WetterOnline ( https://www.wetteronline.de )

Wetter aktuell Zittau

Aktuelles Wetter: Görlitz (240m)

6-stündlich | Neueste Meldungen
Ortszeit Temperatur Wetter
Di, 05.07. 8:00 19.6° C wolkig
Di, 05.07. 2:00 18.7° C bedeckt
Mo, 04.07. 20:00 24.2° C fast wolkenlos
Mo, 04.07. 14:00 26.4° C leicht bewölkt
Mo, 04.07. 8:00 19.9° C leicht bewölkt
Mo, 04.07. 2:00 17.3° C wolkenlos
So, 03.07. 20:00 25.3° C wolkenlos
So, 03.07. 14:00 24.9° C fast wolkenlos
Ortszeit Temperatur Wetter
Di, 05.07. 9:00 20.9° C leicht bewölkt
Di, 05.07. 8:50 20.9° C leicht bewölkt
Di, 05.07. 8:40 20.7° C bedeckt
Di, 05.07. 8:30 20.0° C wolkig
Di, 05.07. 8:20 20.0° C wolkig
Di, 05.07. 8:10 19.7° C bedeckt
Di, 05.07. 8:00 19.6° C wolkig
Di, 05.07. 7:30 18.2° C leicht bewölkt
Di, 05.07. 7:00 16.8° C fast wolkenlos
Di, 05.07. 6:30 16.1° C bewölkt
Di, 05.07. 6:00 15.2° C bewölkt
Ortszeit Relative Feuchte Sichtweite
Di, 05.07. 8:00 59% 60 km
Di, 05.07. 2:00 64% 65 km
Mo, 04.07. 20:00 45% >70 km
Mo, 04.07. 14:00 47% 45 km
Mo, 04.07. 8:00 65% >70 km
Mo, 04.07. 2:00 82% 45 km
So, 03.07. 20:00 49% 60 km
So, 03.07. 14:00 45% >70 km
Ortszeit Relative Feuchte Sichtweite
Di, 05.07. 9:00 55% 65 km
Di, 05.07. 8:50 55% -
Di, 05.07. 8:40 57% -
Di, 05.07. 8:30 60% >70 km
Di, 05.07. 8:20 60% -
Di, 05.07. 8:10 61% -
Di, 05.07. 8:00 59% 60 km
Di, 05.07. 7:30 68% 55 km
Di, 05.07. 7:00 75% 55 km
Di, 05.07. 6:30 76% >70 km
Di, 05.07. 6:00 84% 60 km
Ortszeit Niederschlagsmenge Niederschlagsart
Di, 05.07. 8:00 0.1 l/m2 in 12 Std. Regen
Di, 05.07. 2:00 0.1 l/m2 in 6 Std. Regen
Mo, 04.07. 20:00 0.1 l/m2 in 12 Std. Regen
Mo, 04.07. 14:00 0.0 l/m2 in 6 Std. -
Mo, 04.07. 8:00 0.0 l/m2 in 12 Std. -
Mo, 04.07. 2:00 0.0 l/m2 in 6 Std. -
So, 03.07. 20:00 0.0 l/m2 in 12 Std. -
So, 03.07. 14:00 0.0 l/m2 in 6 Std. -
Ortszeit Niederschlagsmenge Niederschlagsart
Di, 05.07. 9:00 0.0 l/m2 in 1 Std. -
Di, 05.07. 8:50 keine Meldung -
Di, 05.07. 8:40 keine Meldung -
Di, 05.07. 8:30 0.0 l/m2 in 1 Std. -
Di, 05.07. 8:20 keine Meldung -
Di, 05.07. 8:10 keine Meldung -
Di, 05.07. 8:00 0.0 l/m2 in 1 Std. Regen
Di, 05.07. 7:30 0.0 l/m2 in 1 Std. -
Di, 05.07. 7:00 0.0 l/m2 in 1 Std. -
Di, 05.07. 6:30 0.0 l/m2 in 1 Std. -
Di, 05.07. 6:00 0.0 l/m2 in 1 Std. -
Ortszeit Stärke Spitze Richtung
km/h Bft. km/h Grad Sektor
Di, 05.07. 8:00 7 2 22 120° SO
Di, 05.07. 2:00 6 1 17 80° O
Mo, 04.07. 20:00 9 2 24 340° N
Mo, 04.07. 14:00 11 2 25 250° W
Mo, 04.07. 8:00 13 3 30 270° W
Mo, 04.07. 2:00 4 1 14 170° S
So, 03.07. 20:00 9 2 26 150° SO
So, 03.07. 14:00 13 3 28 210° SW
Ortszeit Stärke Spitze Richtung
km/h Bft. km/h Grad Sektor
Di, 05.07. 9:00 4 1 14 30° NO
Di, 05.07. 8:50 4 1 - 30° NO
Di, 05.07. 8:40 4 1 - 70° O
Di, 05.07. 8:30 9 2 15 120° SO
Di, 05.07. 8:20 9 2 - 120° SO
Di, 05.07. 8:10 9 2 - 120° SO
Di, 05.07. 8:00 7 2 11 120° SO
Di, 05.07. 7:30 2 1 6 180° S
Di, 05.07. 7:00 4 1 7 260° W
Di, 05.07. 6:30 4 1 7 280° W
Di, 05.07. 6:00 6 1 6 230° SW
Ortszeit Untergrenze Bedeckung Gattung
total tief tief mittel hoch
Di, 05.07. 8:00 6000 m 6/8 4/8 - - -
Di, 05.07. 2:00 1260 m 8/8 8/8 - - -
Mo, 04.07. 20:00 9000 m 1/8 0/8 - - -
Mo, 04.07. 14:00 3000 m 3/8 3/8 - - -
Mo, 04.07. 8:00 8400 m 3/8 0/8 - - -
Mo, 04.07. 2:00 - 0/8 0/8 - - -
So, 03.07. 20:00 - 0/8 0/8 - - -
So, 03.07. 14:00 1500 m 1/8 1/8 - - -
Ortszeit Bedeckungsgrad in Achtel und Wolkenuntergrenze
Di, 05.07. 9:00 4(8100m) 6(9000m)
Di, 05.07. 8:50 4(8100m) 6(9000m)
Di, 05.07. 8:40 8
Di, 05.07. 8:30 2(6300m) 8(7800m)
Di, 05.07. 8:20 2(6300m) 8(7800m)
Di, 05.07. 8:10 8
Di, 05.07. 8:00 3(6000m) 4(6600m) 6(7800m)
Di, 05.07. 7:30 3(8700m) 4(9000m)
Di, 05.07. 7:00 1(6600m)
Di, 05.07. 6:30 5(1800m) 8(6600m) 8(8100m)
Di, 05.07. 6:00 6(1800m) 7(2100m) 8(6000m)
Ortszeit Luftdruck NN (hPa) Tendenz (hPa in 3 Std.)
Di, 05.07. 8:00 1019 + 0,5
Di, 05.07. 2:00 1019 + 0,7
Mo, 04.07. 20:00 1016 - 0,4
Mo, 04.07. 14:00 1017 - 0,4
Mo, 04.07. 8:00 1017 + 2,4
Mo, 04.07. 2:00 1016 - 0,8
So, 03.07. 20:00 1016 - 0,9
So, 03.07. 14:00 1018 - 1,2
Ortszeit Luftdruck NN (hPa) Tendenz (hPa in 3 Std.)
Di, 05.07. 9:00 1019 + 0,4
Di, 05.07. 8:50 1019 keine Meldung
Di, 05.07. 8:40 1019 keine Meldung
Di, 05.07. 8:30 1019 + 0,5
Di, 05.07. 8:20 1019 keine Meldung
Di, 05.07. 8:10 1019 keine Meldung
Di, 05.07. 8:00 1019 + 0,5
Di, 05.07. 7:30 1019 + 0,6
Di, 05.07. 7:00 1019 + 0,7
Di, 05.07. 6:30 1019 + 0,4
Di, 05.07. 6:00 1019 + 0,3
Ortszeit Schneehöhe (cm)
Di, 05.07. 8:00 0
Di, 05.07. 2:00 0
Mo, 04.07. 20:00 0
Mo, 04.07. 14:00 0
Mo, 04.07. 8:00 0
Mo, 04.07. 2:00 0
So, 03.07. 20:00 0
So, 03.07. 14:00 0
Ortszeit Schneehöhe (cm)
Di, 05.07. 9:00 0
Di, 05.07. 8:50 0
Di, 05.07. 8:40 0
Di, 05.07. 8:30 0
Di, 05.07. 8:20 0
Di, 05.07. 8:10 0
Di, 05.07. 8:00 0
Di, 05.07. 7:30 0
Di, 05.07. 7:00 0
Di, 05.07. 6:30 0
Di, 05.07. 6:00 0
Link zu dieser Seite / Seite empfehlen

Das Wetter in ...